sensor_id;sensor_type;location;lat;lon;timestamp;pressure;altitude;pressure_sealevel;temperature;humidity
69689;BME280;56932;38.402;-96.176;2022-08-07T00:01:02;97361.06;;;24.09;29.19
69689;BME280;56932;38.402;-96.176;2022-08-07T00:03:27;97361.02;;;23.79;29.36
69689;BME280;56932;38.402;-96.176;2022-08-07T00:05:54;97357.98;;;24.14;29.31
69689;BME280;56932;38.402;-96.176;2022-08-07T00:08:19;97355.41;;;23.37;29.75
69689;BME280;56932;38.402;-96.176;2022-08-07T00:10:44;97354.50;;;23.79;29.44
69689;BME280;56932;38.402;-96.176;2022-08-07T00:13:09;97354.44;;;23.67;29.61
69689;BME280;56932;38.402;-96.176;2022-08-07T00:15:35;97353.73;;;23.80;29.10
69689;BME280;56932;38.402;-96.176;2022-08-07T00:18:00;97353.13;;;24.45;28.71
69689;BME280;56932;38.402;-96.176;2022-08-07T00:20:25;97354.70;;;23.89;29.16
69689;BME280;56932;38.402;-96.176;2022-08-07T00:22:51;97354.39;;;23.59;29.40
69689;BME280;56932;38.402;-96.176;2022-08-07T00:25:16;97353.36;;;23.90;29.05
69689;BME280;56932;38.402;-96.176;2022-08-07T00:27:42;97356.33;;;23.72;29.16
69689;BME280;56932;38.402;-96.176;2022-08-07T00:30:08;97357.19;;;23.77;29.01
69689;BME280;56932;38.402;-96.176;2022-08-07T00:32:33;97358.54;;;23.60;28.73
69689;BME280;56932;38.402;-96.176;2022-08-07T00:34:58;97358.63;;;22.99;29.51
69689;BME280;56932;38.402;-96.176;2022-08-07T00:37:24;97361.54;;;23.96;28.56
69689;BME280;56932;38.402;-96.176;2022-08-07T00:39:49;97358.87;;;23.53;28.83
69689;BME280;56932;38.402;-96.176;2022-08-07T00:42:15;97361.50;;;23.56;29.56
69689;BME280;56932;38.402;-96.176;2022-08-07T00:44:40;97361.57;;;23.12;29.94
69689;BME280;56932;38.402;-96.176;2022-08-07T00:47:07;97364.02;;;23.52;29.43
69689;BME280;56932;38.402;-96.176;2022-08-07T00:49:31;97360.72;;;23.21;29.81
69689;BME280;56932;38.402;-96.176;2022-08-07T00:51:57;97362.02;;;23.06;29.58
69689;BME280;56932;38.402;-96.176;2022-08-07T00:54:22;97363.03;;;23.58;28.88
69689;BME280;56932;38.402;-96.176;2022-08-07T00:56:48;97361.12;;;23.49;28.85
69689;BME280;56932;38.402;-96.176;2022-08-07T00:59:13;97363.33;;;23.27;29.24
69689;BME280;56932;38.402;-96.176;2022-08-07T01:01:38;97366.62;;;23.45;29.06
69689;BME280;56932;38.402;-96.176;2022-08-07T01:04:05;97363.24;;;22.90;29.59
69689;BME280;56932;38.402;-96.176;2022-08-07T01:06:29;97367.19;;;23.55;28.90
69689;BME280;56932;38.402;-96.176;2022-08-07T01:08:55;97366.10;;;23.53;28.51
69689;BME280;56932;38.402;-96.176;2022-08-07T01:11:20;97368.91;;;23.12;29.10
69689;BME280;56932;38.402;-96.176;2022-08-07T01:13:45;97372.62;;;23.00;29.22
69689;BME280;56932;38.402;-96.176;2022-08-07T01:16:11;97376.25;;;23.03;29.17
69689;BME280;56932;38.402;-96.176;2022-08-07T01:18:37;97380.36;;;23.41;28.61
69689;BME280;56932;38.402;-96.176;2022-08-07T01:21:09;97385.45;;;23.48;28.61
69689;BME280;56932;38.402;-96.176;2022-08-07T01:23:28;97382.83;;;22.92;28.98
69689;BME280;56932;38.402;-96.176;2022-08-07T01:25:53;97389.83;;;23.96;28.02
69689;BME280;56932;38.402;-96.176;2022-08-07T01:28:18;97387.41;;;23.40;28.55
69689;BME280;56932;38.402;-96.176;2022-08-07T01:30:44;97390.54;;;22.99;29.11
69689;BME280;56932;38.402;-96.176;2022-08-07T01:33:09;97394.41;;;22.97;29.10
69689;BME280;56932;38.402;-96.176;2022-08-07T01:35:35;97396.16;;;23.07;29.24
69689;BME280;56932;38.402;-96.176;2022-08-07T01:38:00;97399.59;;;22.68;29.55
69689;BME280;56932;38.402;-96.176;2022-08-07T01:40:27;97404.05;;;22.37;29.60
69689;BME280;56932;38.402;-96.176;2022-08-07T01:42:51;97407.08;;;23.00;29.23
69689;BME280;56932;38.402;-96.176;2022-08-07T01:45:17;97410.75;;;22.46;29.10
69689;BME280;56932;38.402;-96.176;2022-08-07T01:47:42;97418.21;;;22.78;29.17
69689;BME280;56932;38.402;-96.176;2022-08-07T01:50:08;97418.80;;;22.86;28.76
69689;BME280;56932;38.402;-96.176;2022-08-07T01:52:34;97424.74;;;22.85;28.89
69689;BME280;56932;38.402;-96.176;2022-08-07T01:54:59;97424.27;;;22.72;28.97
69689;BME280;56932;38.402;-96.176;2022-08-07T01:57:27;97431.54;;;21.99;29.62
69689;BME280;56932;38.402;-96.176;2022-08-07T01:59:53;97440.29;;;22.01;29.89
69689;BME280;56932;38.402;-96.176;2022-08-07T02:02:20;97444.43;;;22.86;28.88
69689;BME280;56932;38.402;-96.176;2022-08-07T02:04:46;97448.86;;;22.54;28.75
69689;BME280;56932;38.402;-96.176;2022-08-07T02:07:07;97456.86;;;22.33;28.84
69689;BME280;56932;38.402;-96.176;2022-08-07T02:09:32;97455.79;;;22.71;28.03
69689;BME280;56932;38.402;-96.176;2022-08-07T02:11:57;97464.04;;;22.14;28.52
69689;BME280;56932;38.402;-96.176;2022-08-07T02:14:23;97467.02;;;22.23;28.92
69689;BME280;56932;38.402;-96.176;2022-08-07T02:16:49;97472.11;;;22.42;28.33
69689;BME280;56932;38.402;-96.176;2022-08-07T02:19:14;97478.18;;;22.60;28.46
69689;BME280;56932;38.402;-96.176;2022-08-07T02:21:40;97482.67;;;21.79;28.94
69689;BME280;56932;38.402;-96.176;2022-08-07T02:24:05;97485.90;;;22.24;28.45
69689;BME280;56932;38.402;-96.176;2022-08-07T02:26:29;97493.64;;;22.02;28.63
69689;BME280;56932;38.402;-96.176;2022-08-07T02:28:55;97500.37;;;21.81;29.01
69689;BME280;56932;38.402;-96.176;2022-08-07T02:31:22;97507.50;;;22.59;28.17
69689;BME280;56932;38.402;-96.176;2022-08-07T02:33:46;97512.38;;;22.61;28.14
69689;BME280;56932;38.402;-96.176;2022-08-07T02:36:12;97516.52;;;21.93;28.98
69689;BME280;56932;38.402;-96.176;2022-08-07T02:38:38;97515.48;;;22.01;28.40
69689;BME280;56932;38.402;-96.176;2022-08-07T02:41:03;97518.51;;;21.50;29.14
69689;BME280;56932;38.402;-96.176;2022-08-07T02:43:28;97525.06;;;22.35;28.78
69689;BME280;56932;38.402;-96.176;2022-08-07T02:45:54;97534.16;;;21.83;28.74
69689;BME280;56932;38.402;-96.176;2022-08-07T02:48:19;97538.28;;;21.96;29.15
69689;BME280;56932;38.402;-96.176;2022-08-07T02:50:49;97545.78;;;21.73;28.63
69689;BME280;56932;38.402;-96.176;2022-08-07T02:53:13;97541.60;;;21.63;29.12
69689;BME280;56932;38.402;-96.176;2022-08-07T02:55:37;97541.19;;;21.72;29.39
69689;BME280;56932;38.402;-96.176;2022-08-07T02:58:03;97541.74;;;21.39;29.20
69689;BME280;56932;38.402;-96.176;2022-08-07T03:00:27;97546.87;;;22.29;28.45
69689;BME280;56932;38.402;-96.176;2022-08-07T03:02:52;97551.27;;;21.85;28.83
69689;BME280;56932;38.402;-96.176;2022-08-07T03:05:17;97556.90;;;21.26;29.50
69689;BME280;56932;38.402;-96.176;2022-08-07T03:07:44;97567.99;;;21.48;29.12
69689;BME280;56932;38.402;-96.176;2022-08-07T03:10:09;97568.66;;;21.28;29.21
69689;BME280;56932;38.402;-96.176;2022-08-07T03:12:34;97567.99;;;22.22;28.27
69689;BME280;56932;38.402;-96.176;2022-08-07T03:14:59;97567.64;;;21.27;29.47
69689;BME280;56932;38.402;-96.176;2022-08-07T03:17:25;97572.21;;;20.95;29.41
69689;BME280;56932;38.402;-96.176;2022-08-07T03:19:50;97571.63;;;21.13;29.27
69689;BME280;56932;38.402;-96.176;2022-08-07T03:22:16;97573.42;;;21.55;29.09
69689;BME280;56932;38.402;-96.176;2022-08-07T03:24:41;97572.80;;;21.40;29.25
69689;BME280;56932;38.402;-96.176;2022-08-07T03:27:07;97578.90;;;21.43;29.49
69689;BME280;56932;38.402;-96.176;2022-08-07T03:29:36;97584.19;;;21.14;29.18
69689;BME280;56932;38.402;-96.176;2022-08-07T03:31:58;97581.72;;;21.56;28.71
69689;BME280;56932;38.402;-96.176;2022-08-07T03:34:24;97586.32;;;21.56;28.60
69689;BME280;56932;38.402;-96.176;2022-08-07T03:36:50;97590.34;;;21.19;29.31
69689;BME280;56932;38.402;-96.176;2022-08-07T03:39:15;97593.37;;;20.91;29.53
69689;BME280;56932;38.402;-96.176;2022-08-07T03:41:40;97589.61;;;20.82;29.38
69689;BME280;56932;38.402;-96.176;2022-08-07T03:44:05;97590.91;;;22.52;28.71
69689;BME280;56932;38.402;-96.176;2022-08-07T03:46:30;97589.73;;;21.49;29.92
69689;BME280;56932;38.402;-96.176;2022-08-07T03:48:56;97593.17;;;21.19;29.82
69689;BME280;56932;38.402;-96.176;2022-08-07T03:51:22;97589.63;;;21.88;29.55
69689;BME280;56932;38.402;-96.176;2022-08-07T03:53:47;97583.42;;;21.31;29.59
69689;BME280;56932;38.402;-96.176;2022-08-07T03:56:18;97587.74;;;21.67;29.35
69689;BME280;56932;38.402;-96.176;2022-08-07T03:58:38;97588.61;;;21.38;29.30
69689;BME280;56932;38.402;-96.176;2022-08-07T04:01:04;97592.85;;;21.45;29.14
69689;BME280;56932;38.402;-96.176;2022-08-07T04:03:29;97597.74;;;21.84;28.59
69689;BME280;56932;38.402;-96.176;2022-08-07T04:05:54;97593.61;;;21.77;28.46
69689;BME280;56932;38.402;-96.176;2022-08-07T04:08:20;97589.71;;;21.33;28.81
69689;BME280;56932;38.402;-96.176;2022-08-07T04:10:46;97594.02;;;21.27;29.28
69689;BME280;56932;38.402;-96.176;2022-08-07T04:13:12;97597.34;;;20.93;29.48
69689;BME280;56932;38.402;-96.176;2022-08-07T04:15:36;97596.34;;;21.44;29.26
69689;BME280;56932;38.402;-96.176;2022-08-07T04:18:02;97595.86;;;21.11;29.66
69689;BME280;56932;38.402;-96.176;2022-08-07T04:20:27;97595.19;;;20.54;29.78
69689;BME280;56932;38.402;-96.176;2022-08-07T04:22:53;97593.91;;;21.04;29.73
69689;BME280;56932;38.402;-96.176;2022-08-07T04:25:19;97598.76;;;20.99;29.74
69689;BME280;56932;38.402;-96.176;2022-08-07T04:27:44;97597.37;;;21.70;28.63
69689;BME280;56932;38.402;-96.176;2022-08-07T04:30:10;97601.19;;;21.37;28.78
69689;BME280;56932;38.402;-96.176;2022-08-07T04:32:35;97609.85;;;21.16;28.90
69689;BME280;56932;38.402;-96.176;2022-08-07T04:35:01;97616.14;;;21.59;28.69
69689;BME280;56932;38.402;-96.176;2022-08-07T04:37:26;97616.64;;;20.99;29.07
69689;BME280;56932;38.402;-96.176;2022-08-07T04:39:51;97614.74;;;21.74;28.18
69689;BME280;56932;38.402;-96.176;2022-08-07T04:42:17;97619.71;;;21.46;28.80
69689;BME280;56932;38.402;-96.176;2022-08-07T04:44:42;97620.11;;;21.27;29.18
69689;BME280;56932;38.402;-96.176;2022-08-07T04:47:12;97622.04;;;20.92;29.63
69689;BME280;56932;38.402;-96.176;2022-08-07T04:49:41;97622.25;;;21.05;29.07
69689;BME280;56932;38.402;-96.176;2022-08-07T04:52:06;97619.00;;;20.81;29.38
69689;BME280;56932;38.402;-96.176;2022-08-07T04:54:29;97610.87;;;20.43;29.88
69689;BME280;56932;38.402;-96.176;2022-08-07T04:56:51;97613.13;;;21.16;29.37
69689;BME280;56932;38.402;-96.176;2022-08-07T04:59:20;97615.91;;;21.54;28.63
69689;BME280;56932;38.402;-96.176;2022-08-07T05:01:48;97618.69;;;20.64;29.61
69689;BME280;56932;38.402;-96.176;2022-08-07T05:04:11;97620.94;;;21.32;28.69
69689;BME280;56932;38.402;-96.176;2022-08-07T05:06:38;97621.63;;;20.79;29.34
69689;BME280;56932;38.402;-96.176;2022-08-07T05:09:02;97623.64;;;21.09;29.23
69689;BME280;56932;38.402;-96.176;2022-08-07T05:11:29;97628.04;;;20.51;29.55
69689;BME280;56932;38.402;-96.176;2022-08-07T05:13:52;97632.43;;;20.76;29.25
69689;BME280;56932;38.402;-96.176;2022-08-07T05:16:15;97636.81;;;21.16;28.83
69689;BME280;56932;38.402;-96.176;2022-08-07T05:18:45;97639.93;;;20.55;29.43
69689;BME280;56932;38.402;-96.176;2022-08-07T05:21:08;97637.20;;;21.15;29.00
69689;BME280;56932;38.402;-96.176;2022-08-07T05:23:37;97640.26;;;20.34;29.75
69689;BME280;56932;38.402;-96.176;2022-08-07T05:25:56;97636.34;;;20.31;29.74
69689;BME280;56932;38.402;-96.176;2022-08-07T05:28:22;97635.54;;;20.34;29.77
69689;BME280;56932;38.402;-96.176;2022-08-07T05:30:47;97635.41;;;20.95;29.10
69689;BME280;56932;38.402;-96.176;2022-08-07T05:33:13;97638.70;;;20.50;29.60
69689;BME280;56932;38.402;-96.176;2022-08-07T05:35:38;97635.66;;;20.48;29.48
69689;BME280;56932;38.402;-96.176;2022-08-07T05:38:04;97629.59;;;20.57;29.48
69689;BME280;56932;38.402;-96.176;2022-08-07T05:40:29;97627.09;;;20.44;29.47
69689;BME280;56932;38.402;-96.176;2022-08-07T05:42:55;97633.18;;;21.00;29.34
69689;BME280;56932;38.402;-96.176;2022-08-07T05:45:21;97626.73;;;20.24;29.69
69689;BME280;56932;38.402;-96.176;2022-08-07T05:47:45;97628.62;;;20.72;29.14
69689;BME280;56932;38.402;-96.176;2022-08-07T05:50:11;97630.07;;;20.01;29.98
69689;BME280;56932;38.402;-96.176;2022-08-07T05:52:36;97627.64;;;20.22;29.79
69689;BME280;56932;38.402;-96.176;2022-08-07T05:55:02;97627.85;;;20.27;29.65
69689;BME280;56932;38.402;-96.176;2022-08-07T05:57:28;97625.69;;;20.48;29.23
69689;BME280;56932;38.402;-96.176;2022-08-07T05:59:54;97624.55;;;21.24;28.26
69689;BME280;56932;38.402;-96.176;2022-08-07T06:02:19;97628.03;;;20.32;29.38
69689;BME280;56932;38.402;-96.176;2022-08-07T06:04:47;97624.19;;;20.31;29.44
69689;BME280;56932;38.402;-96.176;2022-08-07T06:07:09;97620.08;;;19.96;29.93
69689;BME280;56932;38.402;-96.176;2022-08-07T06:09:35;97619.11;;;20.30;29.52
69689;BME280;56932;38.402;-96.176;2022-08-07T06:12:00;97615.42;;;20.59;29.29
69689;BME280;56932;38.402;-96.176;2022-08-07T06:14:26;97610.44;;;19.88;29.84
69689;BME280;56932;38.402;-96.176;2022-08-07T06:16:52;97618.60;;;20.56;29.13
69689;BME280;56932;38.402;-96.176;2022-08-07T06:19:17;97622.57;;;20.60;29.22
69689;BME280;56932;38.402;-96.176;2022-08-07T06:21:43;97616.52;;;20.15;29.78
69689;BME280;56932;38.402;-96.176;2022-08-07T06:24:08;97615.98;;;20.34;29.69
69689;BME280;56932;38.402;-96.176;2022-08-07T06:26:33;97619.78;;;20.13;29.93
69689;BME280;56932;38.402;-96.176;2022-08-07T06:28:59;97616.61;;;19.83;29.96
69689;BME280;56932;38.402;-96.176;2022-08-07T06:31:24;97616.97;;;19.76;29.82
69689;BME280;56932;38.402;-96.176;2022-08-07T06:33:50;97614.34;;;19.79;29.98
69689;BME280;56932;38.402;-96.176;2022-08-07T06:36:15;97616.86;;;21.01;28.87
69689;BME280;56932;38.402;-96.176;2022-08-07T06:38:42;97613.25;;;19.99;29.43
69689;BME280;56932;38.402;-96.176;2022-08-07T06:41:10;97610.98;;;20.33;29.08
69689;BME280;56932;38.402;-96.176;2022-08-07T06:43:32;97607.93;;;19.73;29.90
69689;BME280;56932;38.402;-96.176;2022-08-07T06:45:57;97603.20;;;20.35;29.21
69689;BME280;56932;38.402;-96.176;2022-08-07T06:48:23;97600.43;;;20.04;29.55
69689;BME280;56932;38.402;-96.176;2022-08-07T06:50:48;97605.70;;;20.44;29.08
69689;BME280;56932;38.402;-96.176;2022-08-07T06:53:14;97605.80;;;20.03;29.05
69689;BME280;56932;38.402;-96.176;2022-08-07T06:55:40;97606.55;;;20.43;28.65
69689;BME280;56932;38.402;-96.176;2022-08-07T06:58:08;97610.41;;;20.30;28.86
69689;BME280;56932;38.402;-96.176;2022-08-07T07:00:35;97606.66;;;19.95;29.21
69689;BME280;56932;38.402;-96.176;2022-08-07T07:02:55;97606.67;;;19.95;29.20
69689;BME280;56932;38.402;-96.176;2022-08-07T07:05:21;97606.62;;;20.01;29.55
69689;BME280;56932;38.402;-96.176;2022-08-07T07:07:46;97603.92;;;20.10;28.95
69689;BME280;56932;38.402;-96.176;2022-08-07T07:10:13;97601.10;;;20.24;29.06
69689;BME280;56932;38.402;-96.176;2022-08-07T07:12:42;97598.17;;;19.59;29.97
69689;BME280;56932;38.402;-96.176;2022-08-07T07:15:06;97597.80;;;20.15;29.41
69689;BME280;56932;38.402;-96.176;2022-08-07T07:17:33;97598.41;;;20.12;28.79
69689;BME280;56932;38.402;-96.176;2022-08-07T07:19:58;97593.07;;;20.13;28.69
69689;BME280;56932;38.402;-96.176;2022-08-07T07:22:20;97593.61;;;20.09;29.13
69689;BME280;56932;38.402;-96.176;2022-08-07T07:24:45;97594.33;;;19.94;29.36
69689;BME280;56932;38.402;-96.176;2022-08-07T07:27:13;97595.19;;;19.96;29.27
69689;BME280;56932;38.402;-96.176;2022-08-07T07:29:38;97595.45;;;19.65;29.32
69689;BME280;56932;38.402;-96.176;2022-08-07T07:32:04;97595.96;;;19.74;29.44
69689;BME280;56932;38.402;-96.176;2022-08-07T07:34:29;97598.71;;;19.57;29.45
69689;BME280;56932;38.402;-96.176;2022-08-07T07:36:53;97598.36;;;20.18;29.05
69689;BME280;56932;38.402;-96.176;2022-08-07T07:39:19;97597.84;;;19.89;29.14
69689;BME280;56932;38.402;-96.176;2022-08-07T07:41:48;97594.48;;;20.24;28.72
69689;BME280;56932;38.402;-96.176;2022-08-07T07:44:11;97599.47;;;19.94;28.59
69689;BME280;56932;38.402;-96.176;2022-08-07T07:46:36;97604.59;;;19.82;29.00
69689;BME280;56932;38.402;-96.176;2022-08-07T07:49:00;97604.65;;;19.45;29.67
69689;BME280;56932;38.402;-96.176;2022-08-07T07:51:27;97606.09;;;19.61;29.43
69689;BME280;56932;38.402;-96.176;2022-08-07T07:53:51;97602.31;;;19.41;29.42
69689;BME280;56932;38.402;-96.176;2022-08-07T07:56:16;97606.90;;;19.96;29.00
69689;BME280;56932;38.402;-96.176;2022-08-07T07:58:43;97609.68;;;19.54;29.41
69689;BME280;56932;38.402;-96.176;2022-08-07T08:01:09;97605.96;;;19.30;29.66
69689;BME280;56932;38.402;-96.176;2022-08-07T08:03:35;97613.02;;;19.10;29.81
69689;BME280;56932;38.402;-96.176;2022-08-07T08:05:59;97613.08;;;19.34;29.37
69689;BME280;56932;38.402;-96.176;2022-08-07T08:08:27;97610.82;;;19.78;28.98
69689;BME280;56932;38.402;-96.176;2022-08-07T08:10:50;97610.80;;;19.75;29.01
69689;BME280;56932;38.402;-96.176;2022-08-07T08:13:15;97611.09;;;19.38;29.64
69689;BME280;56932;38.402;-96.176;2022-08-07T08:15:42;97607.77;;;19.80;28.98
69689;BME280;56932;38.402;-96.176;2022-08-07T08:18:09;97609.14;;;19.56;29.53
69689;BME280;56932;38.402;-96.176;2022-08-07T08:20:34;97609.00;;;19.06;29.62
69689;BME280;56932;38.402;-96.176;2022-08-07T08:22:57;97607.27;;;19.57;29.59
69689;BME280;56932;38.402;-96.176;2022-08-07T08:25:24;97608.32;;;19.32;29.34
69689;BME280;56932;38.402;-96.176;2022-08-07T08:27:51;97612.21;;;19.48;29.09
69689;BME280;56932;38.402;-96.176;2022-08-07T08:30:14;97612.82;;;19.57;29.01
69689;BME280;56932;38.402;-96.176;2022-08-07T08:32:42;97611.01;;;19.69;28.85
69689;BME280;56932;38.402;-96.176;2022-08-07T08:35:07;97606.84;;;19.34;29.16
69689;BME280;56932;38.402;-96.176;2022-08-07T08:37:33;97611.85;;;18.80;29.39
69689;BME280;56932;38.402;-96.176;2022-08-07T08:39:56;97615.89;;;19.37;29.00
69689;BME280;56932;38.402;-96.176;2022-08-07T08:42:24;97621.12;;;19.47;29.11
69689;BME280;56932;38.402;-96.176;2022-08-07T08:44:53;97621.93;;;18.96;29.33
69689;BME280;56932;38.402;-96.176;2022-08-07T08:47:20;97619.84;;;19.66;28.11
69689;BME280;56932;38.402;-96.176;2022-08-07T08:49:43;97615.19;;;19.40;28.92
69689;BME280;56932;38.402;-96.176;2022-08-07T08:52:10;97615.56;;;19.37;28.89
69689;BME280;56932;38.402;-96.176;2022-08-07T08:54:31;97615.72;;;19.90;28.00
69689;BME280;56932;38.402;-96.176;2022-08-07T08:56:58;97618.65;;;19.27;28.82
69689;BME280;56932;38.402;-96.176;2022-08-07T08:59:26;97618.07;;;18.96;29.15
69689;BME280;56932;38.402;-96.176;2022-08-07T09:01:49;97618.50;;;19.01;29.11
69689;BME280;56932;38.402;-96.176;2022-08-07T09:04:15;97620.10;;;19.30;29.24
69689;BME280;56932;38.402;-96.176;2022-08-07T09:06:43;97620.31;;;19.37;28.97
69689;BME280;56932;38.402;-96.176;2022-08-07T09:09:09;97614.49;;;19.32;29.00
69689;BME280;56932;38.402;-96.176;2022-08-07T09:11:36;97609.62;;;19.15;29.38
69689;BME280;56932;38.402;-96.176;2022-08-07T09:14:00;97601.32;;;19.53;28.99
69689;BME280;56932;38.402;-96.176;2022-08-07T09:16:25;97601.27;;;18.61;29.66
69689;BME280;56932;38.402;-96.176;2022-08-07T09:18:55;97597.55;;;19.22;29.20
69689;BME280;56932;38.402;-96.176;2022-08-07T09:21:17;97596.36;;;19.23;28.66
69689;BME280;56932;38.402;-96.176;2022-08-07T09:23:51;97598.49;;;19.22;29.17
69689;BME280;56932;38.402;-96.176;2022-08-07T09:26:12;97603.92;;;19.24;28.86
69689;BME280;56932;38.402;-96.176;2022-08-07T09:28:38;97605.66;;;19.21;28.01
69689;BME280;56932;38.402;-96.176;2022-08-07T09:30:58;97604.92;;;19.67;28.04
69689;BME280;56932;38.402;-96.176;2022-08-07T09:33:34;97603.61;;;19.16;28.87
69689;BME280;56932;38.402;-96.176;2022-08-07T09:35:46;97599.10;;;18.86;28.93
69689;BME280;56932;38.402;-96.176;2022-08-07T09:38:15;97599.88;;;18.88;29.19
69689;BME280;56932;38.402;-96.176;2022-08-07T09:40:45;97593.26;;;19.00;28.77
69689;BME280;56932;38.402;-96.176;2022-08-07T09:43:10;97595.88;;;19.06;28.75
69689;BME280;56932;38.402;-96.176;2022-08-07T09:45:36;97598.97;;;18.65;29.45
69689;BME280;56932;38.402;-96.176;2022-08-07T09:50:21;97594.19;;;19.13;29.34
69689;BME280;56932;38.402;-96.176;2022-08-07T09:52:45;97594.82;;;19.16;28.81
69689;BME280;56932;38.402;-96.176;2022-08-07T09:55:09;97593.61;;;19.92;28.59
69689;BME280;56932;38.402;-96.176;2022-08-07T10:00:04;97591.19;;;19.37;28.98
69689;BME280;56932;38.402;-96.176;2022-08-07T10:05:03;97586.20;;;20.06;28.77
69689;BME280;56932;38.402;-96.176;2022-08-07T10:07:31;97587.43;;;20.28;28.73
69689;BME280;56932;38.402;-96.176;2022-08-07T10:09:51;97585.05;;;20.49;28.69
69689;BME280;56932;38.402;-96.176;2022-08-07T10:12:13;97584.26;;;20.12;29.64
69689;BME280;56932;38.402;-96.176;2022-08-07T10:14:44;97582.31;;;20.38;29.44
69689;BME280;56932;38.402;-96.176;2022-08-07T10:17:11;97582.14;;;20.34;29.98
69689;BME280;56932;38.402;-96.176;2022-08-07T10:19:34;97586.61;;;21.26;29.01
69689;BME280;56932;38.402;-96.176;2022-08-07T10:21:57;97583.01;;;21.00;29.25
69689;BME280;56932;38.402;-96.176;2022-08-07T10:26:46;97588.90;;;20.89;30.12
69689;BME280;56932;38.402;-96.176;2022-08-07T10:29:16;97593.21;;;21.05;30.11
69689;BME280;56932;38.402;-96.176;2022-08-07T10:31:41;97589.49;;;21.02;30.33
69689;BME280;56932;38.402;-96.176;2022-08-07T10:34:06;97592.55;;;20.83;30.79
69689;BME280;56932;38.402;-96.176;2022-08-07T10:36:33;97592.13;;;20.92;30.87
69689;BME280;56932;38.402;-96.176;2022-08-07T10:38:51;97593.93;;;20.96;30.97
69689;BME280;56932;38.402;-96.176;2022-08-07T10:41:18;97595.95;;;20.86;31.31
69689;BME280;56932;38.402;-96.176;2022-08-07T10:43:43;97598.43;;;20.86;31.46
69689;BME280;56932;38.402;-96.176;2022-08-07T10:46:08;97599.22;;;21.06;31.34
69689;BME280;56932;38.402;-96.176;2022-08-07T10:48:37;97601.45;;;20.91;31.71
69689;BME280;56932;38.402;-96.176;2022-08-07T10:50:59;97604.97;;;21.18;31.54
69689;BME280;56932;38.402;-96.176;2022-08-07T10:53:25;97605.81;;;21.29;31.57
69689;BME280;56932;38.402;-96.176;2022-08-07T10:55:48;97605.83;;;21.23;31.40
69689;BME280;56932;38.402;-96.176;2022-08-07T10:58:16;97612.64;;;21.60;31.37
69689;BME280;56932;38.402;-96.176;2022-08-07T11:00:44;97614.44;;;21.37;31.45
69689;BME280;56932;38.402;-96.176;2022-08-07T11:03:06;97620.73;;;21.06;31.96
69689;BME280;56932;38.402;-96.176;2022-08-07T11:05:31;97628.05;;;21.35;31.46
69689;BME280;56932;38.402;-96.176;2022-08-07T11:08:01;97630.83;;;21.35;31.84
69689;BME280;56932;38.402;-96.176;2022-08-07T11:10:23;97635.51;;;21.20;32.07
69689;BME280;56932;38.402;-96.176;2022-08-07T11:12:47;97638.70;;;21.29;31.79
69689;BME280;56932;38.402;-96.176;2022-08-07T11:15:10;97642.07;;;21.11;32.40
69689;BME280;56932;38.402;-96.176;2022-08-07T11:17:40;97645.32;;;21.75;31.70
69689;BME280;56932;38.402;-96.176;2022-08-07T11:20:02;97647.94;;;21.56;31.74
69689;BME280;56932;38.402;-96.176;2022-08-07T11:22:26;97646.36;;;21.35;32.32
69689;BME280;56932;38.402;-96.176;2022-08-07T11:24:56;97645.92;;;22.03;31.66
69689;BME280;56932;38.402;-96.176;2022-08-07T11:27:20;97648.43;;;21.62;32.22
69689;BME280;56932;38.402;-96.176;2022-08-07T11:29:46;97649.84;;;21.80;32.36
69689;BME280;56932;38.402;-96.176;2022-08-07T11:32:11;97647.76;;;21.48;32.56
69689;BME280;56932;38.402;-96.176;2022-08-07T11:34:38;97645.76;;;21.26;32.64
69689;BME280;56932;38.402;-96.176;2022-08-07T11:37:04;97649.82;;;21.97;32.49
69689;BME280;56932;38.402;-96.176;2022-08-07T11:39:46;97653.75;;;21.96;31.93
69689;BME280;56932;38.402;-96.176;2022-08-07T11:41:56;97660.63;;;21.94;32.30
69689;BME280;56932;38.402;-96.176;2022-08-07T11:44:21;97662.49;;;21.66;32.78
69689;BME280;56932;38.402;-96.176;2022-08-07T11:46:48;97664.32;;;21.83;32.68
69689;BME280;56932;38.402;-96.176;2022-08-07T11:51:41;97667.18;;;22.26;32.27
69689;BME280;56932;38.402;-96.176;2022-08-07T11:53:59;97671.56;;;22.24;32.17
69689;BME280;56932;38.402;-96.176;2022-08-07T11:56:33;97676.04;;;21.82;32.79
69689;BME280;56932;38.402;-96.176;2022-08-07T11:58:55;97677.80;;;21.80;33.16
69689;BME280;56932;38.402;-96.176;2022-08-07T12:01:24;97685.27;;;21.86;33.18
69689;BME280;56932;38.402;-96.176;2022-08-07T12:03:49;97683.23;;;21.87;33.25
69689;BME280;56932;38.402;-96.176;2022-08-07T12:06:16;97683.95;;;21.97;32.86
69689;BME280;56932;38.402;-96.176;2022-08-07T12:08:32;97682.43;;;21.67;33.28
69689;BME280;56932;38.402;-96.176;2022-08-07T12:10:56;97684.75;;;22.24;32.73
69689;BME280;56932;38.402;-96.176;2022-08-07T12:13:25;97688.67;;;22.24;32.79
69689;BME280;56932;38.402;-96.176;2022-08-07T12:15:49;97691.11;;;22.22;32.85
69689;BME280;56932;38.402;-96.176;2022-08-07T12:18:15;97697.77;;;22.17;33.04
69689;BME280;56932;38.402;-96.176;2022-08-07T12:20:41;97698.75;;;22.27;33.25
69689;BME280;56932;38.402;-96.176;2022-08-07T12:23:13;97700.97;;;22.12;33.26
69689;BME280;56932;38.402;-96.176;2022-08-07T12:25:31;97702.33;;;22.34;33.08
69689;BME280;56932;38.402;-96.176;2022-08-07T12:27:56;97704.31;;;21.92;33.37
69689;BME280;56932;38.402;-96.176;2022-08-07T12:30:17;97705.07;;;22.07;33.29
69689;BME280;56932;38.402;-96.176;2022-08-07T12:32:46;97710.25;;;22.21;33.46
69689;BME280;56932;38.402;-96.176;2022-08-07T12:35:10;97714.38;;;22.31;33.39
69689;BME280;56932;38.402;-96.176;2022-08-07T12:37:33;97716.31;;;22.00;33.61
69689;BME280;56932;38.402;-96.176;2022-08-07T12:40:01;97714.55;;;22.15;33.72
69689;BME280;56932;38.402;-96.176;2022-08-07T12:42:26;97718.38;;;21.79;34.00